Terminal Aerodrome Forecast
Issued by NWS

Home | Current Version | Previous Version | Text Only | Print | Product List | Glossary On
Versions: 1 2 3 4 5 6 7 8 9 10 11 12 13 14 15 16 17 18 19 20 21 22 23 24 25 26 27 28 29 30
000
FTUS43 KDTX 061723
TAFPTK
TAF
KPTK 061723Z 0618/0718 19008KT P6SM SCT040 SCT250
     FM070800 21008KT P6SM SCT060 BKN100
     FM071100 22008KT P6SM BKN060 OVC100
     FM071300 24009KT 6SM -SHRA BKN040 OVC070=

USA.gov is the U.S. government's official web portal to all federal, state and local government web resources and services.